Weather at Aboyne Airfield

Public forecast

Using degrees Celsius for public forecast. Weather courtesy of forecast.io.

Closest aviation weather report (METAR) to Aboyne Airfield

Report is more than 6 hours old.

Closest report is Aberdeen Dyce Airport, 22.2 nm (41.2 km) ENE.

2022/11/14 15:20 (retrieved 2 years ago)

EGPD 141520Z AUTO 14011KT 9999 OVC011 10/08 Q1006

Closest aviation forecast (TAF) to Aboyne Airfield

Forecast is more than 12 hours old.

Closest forecast is Aberdeen Dyce Airport, 22.2 nm (41.2 km) ENE.

2023/02/22 18:00 (retrieved 1 year ago)

TAF EGPD 221653Z 2218/2318 32012KT 9999 FEW020 SCT035 PROB30 TEMPO 2218/2221 34015G25KT 7000 SHRA BKN014 BECMG 2300/2303 26007KT